Time;durP1;ratioP1;P1;durP2;ratioP2;P2;SDS_P1;SDS_P2;PMS_P1;PMS_P2;Temp;Humidity;BMP_temperature;BMP_pressure;BME280_temperature;BME280_humidity;BME280_pressure;Samples;Min_cycle;Max_cycle;Signal;HPM_P1;HPM_P2
2023/01/24 05:39:05;;;;;;;156.27;39.63;;;0.60;99.90;;;;;;7608496;19;21438;-77
2023/01/24 05:41:38;;;;;;;184.15;50.97;;;0.60;99.90;;;;;;7611130;19;20713;-77
2023/01/24 05:44:11;;;;;;;153.10;40.90;;;0.70;99.90;;;;;;7611462;19;20548;-76
2023/01/24 05:46:45;;;;;;;;;;;0.70;99.90;;;;;;7615186;19;20089;-77
2023/01/24 05:49:21;;;;;;;132.75;38.00;;;0.80;99.90;;;;;;7598810;19;19923;-78
2023/01/24 05:51:55;;;;;;;;;;;0.90;99.90;;;;;;7586566;19;20053;-76
2023/01/24 05:54:44;;;;;;;131.38;34.78;;;0.90;99.90;;;;;;7607988;19;19911;-78
2023/01/24 05:57:28;;;;;;;138.57;39.05;;;0.90;99.90;;;;;;7617373;19;20013;-78
2023/01/24 06:00:20;;;;;;;131.52;39.92;;;1.00;99.90;;;;;;7603205;19;20022;-79
2023/01/24 06:03:15;;;;;;;128.15;38.85;;;1.10;99.90;;;;;;7601425;19;20022;-79
2023/01/24 06:05:50;;;;;;;100.55;33.10;;;1.10;99.90;;;;;;7592503;19;20018;-76
2023/01/24 06:08:22;;;;;;;110.57;33.00;;;1.10;99.90;;;;;;7598686;19;20054;-74
2023/01/24 06:10:54;;;;;;;116.07;35.78;;;1.20;99.90;;;;;;7571718;19;20022;-76
2023/01/24 06:13:29;;;;;;;84.63;29.63;;;1.20;99.90;;;;;;7592650;19;20010;-74
2023/01/24 06:16:08;;;;;;;97.43;32.20;;;1.20;99.90;;;;;;7589806;19;20724;-74
2023/01/24 06:18:41;;;;;;;82.35;29.95;;;1.20;99.90;;;;;;7600420;19;21235;-73
2023/01/24 06:21:25;;;;;;;93.10;31.80;;;1.30;99.90;;;;;;7593925;19;20022;-74
2023/01/24 06:24:00;;;;;;;85.63;28.67;;;1.30;99.90;;;;;;7601611;19;20034;-74
2023/01/24 06:26:46;;;;;;;88.07;27.92;;;1.30;99.90;;;;;;7590149;19;20018;-75
2023/01/24 06:29:19;;;;;;;82.10;27.98;;;1.30;99.90;;;;;;7581455;19;20021;-74
2023/01/24 06:32:27;;;;;;;76.70;27.25;;;1.30;99.90;;;;;;7621556;19;20484;-74
2023/01/24 06:35:25;;;;;;;68.78;24.27;;;1.00;99.90;;;;;;7591182;19;20050;-75
2023/01/24 06:37:58;;;;;;;69.45;24.38;;;1.80;99.90;;;;;;7523506;19;20018;-73
2023/01/24 06:40:30;;;;;;;80.68;26.42;;;1.40;99.90;;;;;;7565956;19;20010;-75
2023/01/24 06:43:03;;;;;;;72.60;24.95;;;1.40;99.90;;;;;;7591876;19;20044;-75
2023/01/24 06:45:35;;;;;;;52.67;21.13;;;0.40;99.90;;;;;;7600119;19;20055;-73
2023/01/24 06:48:07;;;;;;;65.10;22.20;;;1.30;99.90;;;;;;7610270;19;20253;-75
2023/01/24 06:50:40;;;;;;;60.88;23.83;;;1.50;99.90;;;;;;7586594;19;20034;-75
2023/01/24 06:53:14;;;;;;;61.95;22.83;;;1.50;99.90;;;;;;7585490;19;20022;-76
2023/01/24 06:55:46;;;;;;;63.33;24.55;;;1.50;99.90;;;;;;7593019;19;20729;-75
2023/01/24 06:58:18;;;;;;;61.10;21.48;;;1.40;99.90;;;;;;7605534;19;20015;-74
2023/01/24 07:00:53;;;;;;;69.50;24.15;;;1.50;99.90;;;;;;7596339;19;20018;-74
2023/01/24 07:03:25;;;;;;;72.70;25.75;;;1.50;99.90;;;;;;7603523;19;20107;-74
2023/01/24 07:05:57;;;;;;;67.25;25.05;;;1.50;99.90;;;;;;7595739;19;20865;-75
2023/01/24 07:08:29;;;;;;;65.30;24.05;;;1.50;99.90;;;;;;7597881;19;20011;-73
2023/01/24 07:11:01;;;;;;;87.68;26.48;;;1.50;99.90;;;;;;7596803;19;20047;-74
2023/01/24 07:13:33;;;;;;;63.42;23.80;;;1.50;99.90;;;;;;7605017;19;20014;-74
2023/01/24 07:16:06;;;;;;;70.75;27.88;;;1.50;99.90;;;;;;7596525;19;20017;-74
2023/01/24 14:59:28;;;;;;;110.00;34.67;;;1.20;99.90;;;;;;7393286;19;2927863;-75
2023/01/24 15:02:00;;;;;;;117.22;35.28;;;1.20;99.90;;;;;;7574323;19;23309;-74
2023/01/24 15:04:33;;;;;;;132.18;38.03;;;1.30;99.90;;;;;;7560307;19;22223;-76
2023/01/24 15:07:14;;;;;;;136.45;40.15;;;1.30;99.90;;;;;;7580510;19;20022;-75
2023/01/24 15:09:46;;;;;;;133.32;40.00;;;1.40;99.90;;;;;;7621789;19;20031;-77
2023/01/24 15:12:33;;;;;;;131.93;41.70;;;1.40;99.90;;;;;;7606607;19;20022;-77
2023/01/24 15:15:06;;;;;;;123.45;38.50;;;1.40;99.90;;;;;;7604752;19;20515;-75
2023/01/24 15:17:38;;;;;;;126.47;40.45;;;1.50;99.90;;;;;;7598791;19;20105;-77
2023/01/24 15:20:15;;;;;;;116.72;37.28;;;1.50;99.90;;;;;;7594005;19;20046;-76
2023/01/24 15:22:53;;;;;;;123.70;39.38;;;1.60;99.90;;;;;;7610598;19;20015;-74
2023/01/24 15:25:34;;;;;;;122.85;38.50;;;1.60;99.90;;;;;;7600103;19;20037;-76
2023/01/24 15:28:22;;;;;;;137.50;40.95;;;1.60;99.90;;;;;;7559588;19;20315;-75
2023/01/24 15:30:59;;;;;;;115.25;36.22;;;1.70;99.90;;;;;;7595715;19;20029;-74
2023/01/24 15:33:42;;;;;;;136.05;38.92;;;1.70;99.90;;;;;;7591120;19;20019;-77
2023/01/24 15:36:33;;;;;;;133.77;40.58;;;1.70;99.90;;;;;;7604275;19;20368;-76
2023/01/24 15:39:13;;;;;;;149.35;40.38;;;1.70;99.90;;;;;;7610443;19;20014;-73
2023/01/24 15:44:46;;;;;;;146.43;42.78;;;1.70;99.90;;;;;;7577292;19;20418;-75
2023/01/24 15:53:19;;;;;;;128.02;39.95;;;1.70;99.90;;;;;;7632086;19;20021;-77
2023/01/24 15:55:59;;;;;;;138.50;41.30;;;1.70;99.90;;;;;;7617422;19;20077;-76
2023/01/24 15:58:35;;;;;;;160.68;40.75;;;1.70;99.90;;;;;;7604103;19;20017;-77
2023/01/24 16:01:08;;;;;;;152.95;42.63;;;1.70;99.90;;;;;;7608553;19;20105;-77
2023/01/24 16:03:40;;;;;;;152.75;44.40;;;0.80;99.90;;;;;;7616980;19;20021;-76
2023/01/24 16:06:12;;;;;;;150.55;41.88;;;1.70;99.90;;;;;;7621502;19;20026;-77
2023/01/24 16:08:44;;;;;;;156.65;44.25;;;1.70;99.90;;;;;;7623720;19;20093;-75
2023/01/24 16:11:19;;;;;;;144.98;41.38;;;1.70;99.90;;;;;;7577981;19;20041;-75
2023/01/24 16:13:55;;;;;;;166.93;44.45;;;1.90;99.90;;;;;;7565197;19;20022;-75
2023/01/24 16:16:28;;;;;;;165.40;45.85;;;1.70;99.90;;;;;;7564578;19;21827;-77
2023/01/24 16:19:00;;;;;;;158.02;43.90;;;1.60;99.90;;;;;;7574764;19;20018;-76
2023/01/24 16:21:32;;;;;;;155.85;40.85;;;1.60;99.90;;;;;;7581254;19;20764;-74
2023/01/24 16:24:05;;;;;;;159.50;40.75;;;1.60;99.90;;;;;;7566308;19;20637;-76
2023/01/24 16:26:40;;;;;;;;;;;1.00;99.90;;;;;;7549209;19;20433;-75
2023/01/24 16:29:14;;;;;;;;;;;1.00;99.90;;;;;;7560650;19;19940;-73
2023/01/24 16:31:46;;;;;;;176.90;43.55;;;1.30;99.90;;;;;;7565277;19;19923;-74
2023/01/24 16:34:19;;;;;;;215.73;49.53;;;1.70;99.90;;;;;;7575365;19;20462;-75
2023/01/24 16:36:51;;;;;;;174.30;42.10;;;1.70;99.90;;;;;;7568873;19;20017;-76
2023/01/24 16:39:23;;;;;;;180.75;44.83;;;1.00;99.90;;;;;;7577833;19;20018;-76
2023/01/24 16:41:55;;;;;;;169.32;42.38;;;1.70;99.90;;;;;;7603560;19;20010;-75
2023/01/24 16:44:27;;;;;;;165.68;44.83;;;1.70;99.90;;;;;;7582857;19;20007;-75
2023/01/24 16:46:59;;;;;;;141.23;38.15;;;2.50;99.90;;;;;;7578059;19;20018;-75
2023/01/24 16:49:31;;;;;;;155.68;42.03;;;1.70;99.90;;;;;;7585151;19;20430;-76
2023/01/24 16:52:03;;;;;;;169.23;43.33;;;1.70;99.90;;;;;;7574541;19;20470;-76
2023/01/24 16:54:50;;;;;;;171.13;42.53;;;1.50;99.90;;;;;;7572790;19;20024;-76
2023/01/24 16:57:22;;;;;;;131.90;37.80;;;1.20;99.90;;;;;;7570786;19;20015;-76
2023/01/24 16:59:54;;;;;;;177.70;46.75;;;1.90;99.90;;;;;;7565966;19;20007;-76
2023/01/24 17:02:26;;;;;;;160.30;43.95;;;1.70;99.90;;;;;;7576854;19;20022;-77
2023/01/24 17:05:00;;;;;;;186.82;45.00;;;1.70;99.90;;;;;;7566397;19;20970;-76
2023/01/24 17:07:32;;;;;;;206.48;48.65;;;1.60;99.90;;;;;;7587061;19;20007;-76
2023/01/24 17:10:05;;;;;;;178.85;42.47;;;1.50;99.90;;;;;;7543013;19;20486;-76
2023/01/24 17:12:38;;;;;;;;;;;1.80;99.90;;;;;;7573141;19;20023;-76
2023/01/24 17:15:10;;;;;;;183.80;43.75;;;1.80;99.90;;;;;;7575240;19;19949;-74
2023/01/24 17:17:43;;;;;;;156.27;42.45;;;1.70;99.90;;;;;;7561052;19;20029;-74
2023/01/24 17:20:15;;;;;;;190.55;49.13;;;1.70;99.90;;;;;;7576816;19;20018;-74
2023/01/24 17:22:47;;;;;;;159.00;44.75;;;1.70;99.90;;;;;;7569860;19;21015;-76
2023/01/24 17:25:20;;;;;;;134.32;42.55;;;1.70;99.90;;;;;;7578743;19;20018;-76
2023/01/24 17:27:52;;;;;;;172.18;44.08;;;1.90;99.90;;;;;;7559920;19;20025;-74
2023/01/24 17:30:25;;;;;;;177.50;47.20;;;3.60;99.90;;;;;;7553450;19;21086;-76
2023/01/24 17:32:57;;;;;;;174.50;46.30;;;1.70;99.90;;;;;;7568663;19;20303;-74
2023/01/24 17:35:37;;;;;;;140.13;41.03;;;1.80;99.90;;;;;;7565777;19;20305;-74
2023/01/24 17:38:10;;;;;;;154.25;42.92;;;1.80;99.90;;;;;;7569960;19;20546;-76
2023/01/24 17:40:42;;;;;;;;;;;2.00;99.90;;;;;;7572301;19;20022;-74
2023/01/24 17:43:14;;;;;;;168.85;40.20;;;2.20;99.90;;;;;;7562871;19;19915;-77
2023/01/24 17:45:55;;;;;;;141.77;41.13;;;2.20;99.90;;;;;;7589275;19;20011;-77
2023/01/24 17:48:29;;;;;;;149.70;42.28;;;1.70;99.90;;;;;;7564063;19;20010;-74
2023/01/24 17:51:12;;;;;;;133.00;39.90;;;1.70;99.90;;;;;;7562757;19;20019;-75
2023/01/24 17:53:45;;;;;;;135.20;38.20;;;1.60;99.90;;;;;;7589511;19;20022;-77
2023/01/24 17:56:18;;;;;;;137.77;40.45;;;1.70;99.90;;;;;;7578370;19;20229;-75
2023/01/24 17:58:50;;;;;;;157.10;41.55;;;2.60;99.90;;;;;;7560458;19;20361;-76
2023/01/24 18:01:22;;;;;;;174.27;43.17;;;2.20;99.90;;;;;;7564009;19;20014;-75
2023/01/24 18:03:55;;;;;;;128.38;40.55;;;2.10;99.90;;;;;;7573243;19;20082;-76
2023/01/24 18:06:27;;;;;;;162.20;41.03;;;;;;;;;;7555177;19;20022;-75
2023/01/24 18:08:59;;;;;;;140.07;41.47;;;2.00;99.90;;;;;;7574778;19;20029;-77
2023/01/24 18:11:31;;;;;;;165.98;44.15;;;1.80;99.90;;;;;;7552460;19;20014;-78
2023/01/24 18:14:03;;;;;;;142.82;40.83;;;1.80;99.90;;;;;;7567270;19;20014;-79
2023/01/24 18:16:36;;;;;;;194.45;47.13;;;1.70;99.90;;;;;;7535455;19;20048;-78
2023/01/24 18:19:08;;;;;;;163.45;46.08;;;1.70;99.90;;;;;;7552391;19;20034;-78
2023/01/24 18:21:41;;;;;;;160.43;41.70;;;0.70;99.90;;;;;;7553227;19;20034;-78
2023/01/24 18:24:13;;;;;;;172.05;46.83;;;;;;;;;;7578755;19;20017;-78
2023/01/24 18:26:46;;;;;;;154.95;43.33;;;1.80;99.90;;;;;;7580273;19;20022;-78
2023/01/24 18:29:18;;;;;;;154.68;41.08;;;1.60;99.90;;;;;;7577154;19;20621;-79
2023/01/24 18:31:50;;;;;;;158.75;43.15;;;1.70;99.90;;;;;;7569569;19;20019;-78
2023/01/24 18:34:23;;;;;;;166.38;43.67;;;;;;;;;;7571357;19;20712;-79
2023/01/24 18:36:55;;;;;;;143.85;42.38;;;1.80;99.90;;;;;;7580034;19;20931;-79
2023/01/24 18:39:28;;;;;;;214.77;69.47;;;1.60;99.90;;;;;;7588860;19;20022;-78
2023/01/24 18:42:03;;;;;;;155.83;46.40;;;2.20;99.90;;;;;;7585604;19;20026;-78
2023/01/24 18:44:36;;;;;;;206.68;51.90;;;1.90;99.90;;;;;;7579592;19;20046;-78
2023/01/24 18:47:08;;;;;;;158.73;46.17;;;2.10;99.90;;;;;;7581728;19;20133;-79
2023/01/24 18:49:40;;;;;;;160.20;46.95;;;1.90;99.90;;;;;;7583627;19;20033;-77
2023/01/24 18:52:13;;;;;;;134.55;39.55;;;1.80;99.90;;;;;;7576310;19;20011;-77
2023/01/24 18:54:45;;;;;;;144.30;44.65;;;1.70;99.90;;;;;;7566113;19;20018;-76
2023/01/24 18:57:17;;;;;;;122.03;37.97;;;2.30;99.90;;;;;;7567182;19;20531;-75
2023/01/24 18:59:49;;;;;;;135.60;38.53;;;1.70;99.90;;;;;;7565426;19;20015;-77
2023/01/24 19:02:23;;;;;;;143.52;47.65;;;2.00;99.90;;;;;;7057291;19;10000248;-77
2023/01/24 19:05:01;;;;;;;163.10;48.35;;;1.60;99.90;;;;;;7559519;19;20931;-77
2023/01/24 19:07:34;;;;;;;142.93;40.58;;;1.90;99.90;;;;;;7546495;19;20007;-77
2023/01/24 19:10:07;;;;;;;194.63;48.93;;;1.80;99.90;;;;;;7549843;19;20014;-76
2023/01/24 19:12:40;;;;;;;125.30;37.85;;;2.10;99.90;;;;;;7538648;19;20286;-77
2023/01/24 19:15:12;;;;;;;150.52;40.65;;;1.60;99.90;;;;;;7566373;19;20019;-77
2023/01/24 19:17:48;;;;;;;131.68;38.75;;;1.60;99.90;;;;;;7557575;19;20018;-78
2023/01/24 19:20:23;;;;;;;157.85;43.33;;;;;;;;;;7544074;19;20038;-78
2023/01/24 19:22:55;;;;;;;131.15;37.63;;;2.30;99.90;;;;;;7543705;19;20030;-77
2023/01/24 19:25:27;;;;;;;149.32;40.53;;;;;;;;;;7556991;19;20010;-77
2023/01/24 19:28:00;;;;;;;151.45;41.90;;;;;;;;;;7564229;19;20041;-77
2023/01/24 19:30:32;;;;;;;149.65;42.00;;;1.30;99.90;;;;;;7548607;19;20434;-77
2023/01/24 19:33:04;;;;;;;131.32;38.00;;;1.50;99.90;;;;;;7560745;19;20098;-76
2023/01/24 19:35:37;;;;;;;151.68;39.42;;;2.00;99.90;;;;;;7550102;19;20022;-76
2023/01/24 19:38:10;;;;;;;127.40;39.40;;;2.70;99.90;;;;;;7545994;19;20011;-75
2023/01/24 19:40:42;;;;;;;153.52;41.33;;;2.40;99.90;;;;;;7544952;19;20420;-76
